Time;durP1;ratioP1;P1;durP2;ratioP2;P2;SDS_P1;SDS_P2;PMS_P1;PMS_P2;Temp;Humidity;BMP_temperature;BMP_pressure;BME280_temperature;BME280_humidity;BME280_pressure;Samples;Min_cycle;Max_cycle;Signal;HPM_P1;HPM_P2
2021/03/24 00:02:11;;;;;;;57.17;29.70;;;7.30;85.50;;;;;;5029945;28;20110;-75
2021/03/24 00:04:37;;;;;;;56.90;30.67;;;7.30;85.40;;;;;;5048889;28;20028;-75
2021/03/24 00:07:03;;;;;;;50.70;27.80;;;7.30;85.50;;;;;;5032066;28;20029;-75
2021/03/24 00:09:29;;;;;;;53.58;27.33;;;7.30;85.20;;;;;;5048605;28;20116;-75
2021/03/24 00:11:55;;;;;;;54.08;29.23;;;7.30;85.50;;;;;;5048106;28;20447;-75
2021/03/24 00:14:20;;;;;;;53.50;28.65;;;7.30;85.70;;;;;;5047942;28;20109;-76
2021/03/24 00:16:48;;;;;;;57.83;28.73;;;7.30;85.80;;;;;;5030630;28;20033;-75
2021/03/24 00:19:14;;;;;;;53.25;29.95;;;7.20;85.70;;;;;;5048489;28;20418;-75
2021/03/24 00:21:39;;;;;;;59.92;30.92;;;7.30;85.70;;;;;;5031528;28;20124;-75
2021/03/24 00:24:06;;;;;;;54.58;28.50;;;7.20;85.70;;;;;;5029636;28;20103;-75
2021/03/24 00:26:32;;;;;;;54.70;28.48;;;7.30;85.50;;;;;;5029597;28;20029;-75
2021/03/24 00:28:58;;;;;;;55.53;29.60;;;7.30;85.20;;;;;;5029483;28;20107;-75
2021/03/24 00:31:24;;;;;;;58.30;31.02;;;7.30;85.10;;;;;;5048322;28;20115;-76
2021/03/24 00:33:50;;;;;;;55.83;28.85;;;7.30;85.30;;;;;;5047782;28;20029;-75
2021/03/24 00:36:16;;;;;;;56.55;28.77;;;7.30;85.60;;;;;;5048716;28;20033;-75
2021/03/24 00:38:42;;;;;;;55.88;29.05;;;7.30;85.50;;;;;;5048225;28;20064;-75
2021/03/24 00:41:07;;;;;;;58.40;30.17;;;7.30;85.50;;;;;;5048950;28;20505;-75
2021/03/24 00:43:33;;;;;;;65.05;31.65;;;7.30;85.00;;;;;;5050853;28;20096;-76
2021/03/24 00:45:59;;;;;;;57.08;29.67;;;7.30;85.20;;;;;;5027047;28;20563;-76
2021/03/24 00:48:29;;;;;;;59.25;31.95;;;7.30;85.40;;;;;;5048689;28;20087;-76
2021/03/24 00:50:56;;;;;;;58.53;31.50;;;7.30;85.10;;;;;;5047360;28;20037;-75
2021/03/24 00:53:24;;;;;;;57.38;28.50;;;7.30;85.30;;;;;;5029900;28;20025;-75
2021/03/24 00:55:51;;;;;;;56.58;29.02;;;7.30;85.10;;;;;;5047371;28;20033;-75
2021/03/24 00:58:17;;;;;;;55.05;30.38;;;7.30;85.10;;;;;;5046628;28;20032;-75
2021/03/24 01:00:44;;;;;;;54.03;29.63;;;7.30;85.20;;;;;;5028893;28;20493;-75
2021/03/24 01:03:10;;;;;;;55.85;30.73;;;7.30;84.90;;;;;;5029716;28;20025;-75
2021/03/24 01:05:37;;;;;;;59.00;31.60;;;7.30;85.10;;;;;;5047323;28;20110;-75
2021/03/24 01:08:12;;;;;;;58.65;32.58;;;7.30;84.90;;;;;;5048510;28;20021;-76
2021/03/24 01:10:39;;;;;;;62.78;32.72;;;7.30;84.90;;;;;;5047513;28;20025;-75
2021/03/24 01:13:06;;;;;;;59.60;31.40;;;7.30;85.20;;;;;;5046764;28;20153;-76
2021/03/24 01:15:33;;;;;;;63.67;33.70;;;7.30;85.30;;;;;;5047680;28;20033;-76
2021/03/24 01:18:01;;;;;;;61.00;31.65;;;7.30;85.00;;;;;;5046493;28;20036;-76
2021/03/24 01:20:29;;;;;;;59.35;31.52;;;7.30;85.20;;;;;;5046259;28;20031;-75
2021/03/24 01:22:56;;;;;;;59.47;31.83;;;7.30;85.20;;;;;;5028913;28;20028;-76
2021/03/24 01:25:22;;;;;;;61.55;33.33;;;7.30;85.30;;;;;;5045983;28;20628;-75
2021/03/24 01:27:48;;;;;;;67.45;33.67;;;7.30;85.10;;;;;;5029565;28;20028;-75
2021/03/24 01:30:16;;;;;;;57.75;30.50;;;7.30;85.30;;;;;;5046345;28;20043;-75
2021/03/24 01:32:42;;;;;;;62.20;33.22;;;7.30;85.50;;;;;;5047118;28;20474;-74
2021/03/24 01:35:09;;;;;;;59.00;30.33;;;7.30;85.30;;;;;;5044997;28;20028;-75
2021/03/24 01:37:37;;;;;;;68.20;33.30;;;7.30;85.50;;;;;;5046475;28;20062;-75
2021/03/24 01:40:09;;;;;;;57.03;31.33;;;7.30;85.40;;;;;;5029846;28;20485;-76
2021/03/24 01:42:36;;;;;;;63.35;34.40;;;7.30;85.50;;;;;;5046031;28;20029;-76
2021/03/24 01:45:07;;;;;;;69.53;35.65;;;7.30;86.00;;;;;;5044223;28;20036;-75
2021/03/24 01:47:34;;;;;;;68.53;34.50;;;7.20;85.60;;;;;;5046797;28;20390;-75
2021/03/24 01:50:00;;;;;;;62.58;34.42;;;7.30;85.70;;;;;;5044032;28;20096;-75
2021/03/24 01:52:27;;;;;;;66.25;35.47;;;7.20;85.90;;;;;;5047743;28;20029;-75
2021/03/24 01:54:53;;;;;;;68.43;34.97;;;7.30;85.70;;;;;;5044781;28;20037;-75
2021/03/24 01:57:23;;;;;;;65.88;34.35;;;7.30;85.60;;;;;;5046661;28;20032;-75
2021/03/24 01:59:53;;;;;;;70.43;34.35;;;7.30;85.60;;;;;;5028683;28;20032;-75
2021/03/24 02:02:36;;;;;;;67.68;35.90;;;7.20;85.80;;;;;;5029134;28;20036;-75
2021/03/24 02:05:03;;;;;;;68.88;35.30;;;7.30;85.50;;;;;;5048005;28;20056;-76
2021/03/24 02:07:36;;;;;;;71.60;36.05;;;7.30;85.70;;;;;;5048434;28;20120;-75
2021/03/24 02:10:09;;;;;;;69.70;34.75;;;7.30;85.90;;;;;;5045880;28;20025;-75
2021/03/24 02:12:58;;;;;;;66.03;34.67;;;7.20;86.00;;;;;;5048635;28;20515;-76
2021/03/24 02:15:40;;;;;;;65.32;35.90;;;7.30;86.00;;;;;;5048440;28;20025;-75
2021/03/24 02:18:09;;;;;;;66.32;34.90;;;7.20;86.10;;;;;;5048005;28;20071;-75
2021/03/24 02:20:39;;;;;;;73.93;36.95;;;7.20;86.20;;;;;;5030332;28;20356;-75
2021/03/24 02:23:05;;;;;;;77.78;36.53;;;7.20;86.20;;;;;;5048468;28;20037;-77
2021/03/24 02:25:37;;;;;;;74.93;36.10;;;7.20;86.40;;;;;;5028744;28;20071;-75
2021/03/24 02:28:07;;;;;;;68.78;35.78;;;7.20;86.30;;;;;;5030615;28;20032;-75
2021/03/24 02:30:36;;;;;;;63.42;33.10;;;7.20;85.90;;;;;;5030360;28;20048;-75
2021/03/24 02:33:22;;;;;;;73.82;36.08;;;7.30;86.10;;;;;;5050146;28;20062;-75
2021/03/24 02:35:59;;;;;;;71.07;37.08;;;7.20;86.10;;;;;;5048351;28;20037;-75
2021/03/24 02:38:26;;;;;;;70.25;36.45;;;7.20;86.20;;;;;;5030962;28;20112;-74
2021/03/24 02:40:54;;;;;;;72.25;37.38;;;7.30;86.20;;;;;;5028747;28;20032;-75
2021/03/24 02:43:21;;;;;;;72.68;37.50;;;7.20;86.30;;;;;;5046451;28;20028;-75
2021/03/24 02:45:48;;;;;;;76.22;38.15;;;7.20;86.40;;;;;;5029505;28;20101;-74
2021/03/24 02:48:24;;;;;;;70.05;37.35;;;7.20;85.90;;;;;;5048174;28;20021;-75
2021/03/24 02:50:52;;;;;;;77.30;35.03;;;7.20;86.10;;;;;;5047849;28;20108;-75
2021/03/24 02:53:19;;;;;;;71.05;35.25;;;7.20;86.30;;;;;;5047366;28;20032;-75
2021/03/24 02:55:45;;;;;;;72.40;36.17;;;7.20;86.30;;;;;;5048910;28;20110;-75
2021/03/24 02:58:11;;;;;;;75.38;38.75;;;7.30;86.10;;;;;;5047011;28;20061;-75
2021/03/24 03:00:37;;;;;;;73.78;37.78;;;7.20;86.20;;;;;;5047458;28;20035;-74
2021/03/24 03:03:16;;;;;;;80.70;37.40;;;7.20;86.00;;;;;;5050049;28;20045;-75
2021/03/24 03:05:44;;;;;;;74.50;38.15;;;7.30;85.90;;;;;;5048673;28;20505;-75
2021/03/24 03:08:16;;;;;;;76.22;38.90;;;7.20;86.00;;;;;;5048058;28;20033;-75
2021/03/24 03:10:54;;;;;;;72.80;36.53;;;7.20;86.00;;;;;;5048337;28;20025;-75
2021/03/24 03:13:26;;;;;;;74.40;37.63;;;7.20;86.10;;;;;;5048848;28;20064;-75
2021/03/24 03:16:37;;;;;;;73.65;38.55;;;7.20;86.00;;;;;;5046277;28;20039;-75
2021/03/24 03:19:29;;;;;;;71.22;35.28;;;7.30;85.90;;;;;;5026747;28;20148;-75
2021/03/24 03:22:07;;;;;;;78.05;37.80;;;7.20;86.10;;;;;;5029822;28;20126;-75
2021/03/24 03:24:39;;;;;;;79.43;38.08;;;7.20;86.30;;;;;;5046699;28;20040;-75
2021/03/24 03:27:09;;;;;;;82.40;39.65;;;7.20;86.00;;;;;;5047562;28;20037;-76
2021/03/24 03:29:35;;;;;;;75.47;36.75;;;7.20;85.80;;;;;;5047202;28;20025;-75
2021/03/24 03:32:04;;;;;;;75.43;38.83;;;7.20;86.10;;;;;;5087770;22;20049;-68
2021/03/24 03:34:31;;;;;;;79.32;37.88;;;7.20;86.20;;;;;;5068107;28;20029;-67
2021/03/24 03:36:59;;;;;;;78.95;39.10;;;7.20;85.60;;;;;;5065830;28;20032;-68
2021/03/24 03:39:27;;;;;;;79.18;37.28;;;7.20;86.00;;;;;;5071130;28;20017;-68
2021/03/24 03:41:55;;;;;;;76.50;38.33;;;7.20;86.10;;;;;;5069022;28;20039;-68
2021/03/24 03:44:23;;;;;;;79.10;38.28;;;7.20;86.00;;;;;;5070736;28;20470;-68
2021/03/24 03:47:13;;;;;;;71.25;37.40;;;7.20;85.90;;;;;;5069548;28;20037;-68
2021/03/24 03:49:40;;;;;;;74.82;38.63;;;7.20;86.00;;;;;;5070907;28;20031;-68
2021/03/24 03:52:12;;;;;;;75.60;39.10;;;7.20;85.90;;;;;;5071219;28;20067;-68
2021/03/24 03:54:47;;;;;;;83.40;38.53;;;7.20;85.70;;;;;;5069849;28;20033;-68
2021/03/24 03:57:27;;;;;;;78.85;40.83;;;7.20;86.00;;;;;;5067676;28;20032;-68
2021/03/24 04:00:01;;;;;;;79.90;39.47;;;7.20;86.30;;;;;;5070224;28;20036;-68
2021/03/24 04:02:33;;;;;;;72.75;37.45;;;7.20;86.00;;;;;;5071000;28;20040;-68
2021/03/24 04:05:07;;;;;;;78.47;38.33;;;7.20;86.20;;;;;;5070178;28;20107;-68
2021/03/24 04:07:38;;;;;;;69.97;36.40;;;7.10;86.20;;;;;;5070853;28;20074;-68
2021/03/24 04:10:04;;;;;;;;;;;7.10;86.30;;;;;;5071640;28;20033;-67
2021/03/24 04:12:34;;;;;;;80.28;37.97;;;7.20;86.30;;;;;;5069900;28;19908;-68
2021/03/24 04:15:03;;;;;;;74.23;36.27;;;7.10;86.30;;;;;;5069891;28;20032;-67
2021/03/24 04:17:37;;;;;;;70.47;35.50;;;7.10;86.20;;;;;;5069912;28;20316;-68
2021/03/24 04:20:05;;;;;;;71.63;36.67;;;7.10;86.20;;;;;;5070857;28;20127;-68
2021/03/24 04:22:32;;;;;;;72.00;35.33;;;7.10;86.30;;;;;;5070639;28;20537;-68
2021/03/24 04:25:00;;;;;;;76.15;39.10;;;7.10;86.30;;;;;;5070969;28;20119;-68
2021/03/24 04:27:29;;;;;;;82.07;39.95;;;7.10;86.20;;;;;;5066696;28;20474;-68
2021/03/24 04:30:01;;;;;;;78.03;37.25;;;7.10;86.10;;;;;;5070710;28;20512;-68
2021/03/24 04:32:27;;;;;;;73.90;37.67;;;7.10;86.50;;;;;;5071212;28;20043;-68
2021/03/24 04:34:53;;;;;;;75.93;37.95;;;7.20;85.80;;;;;;5070127;28;20028;-68
2021/03/24 04:37:28;;;;;;;78.85;38.30;;;7.20;85.80;;;;;;5051951;28;20501;-68
2021/03/24 04:40:23;;;;;;;73.88;37.50;;;7.20;85.90;;;;;;5068992;28;20040;-68
2021/03/24 04:43:01;;;;;;;77.63;37.80;;;7.20;85.90;;;;;;5067936;28;20094;-68
2021/03/24 04:45:38;;;;;;;77.47;38.83;;;7.20;85.80;;;;;;5069138;28;20055;-68
2021/03/24 04:48:18;;;;;;;85.43;39.28;;;7.20;86.00;;;;;;5069590;28;20493;-68
2021/03/24 04:51:00;;;;;;;69.03;35.50;;;7.10;86.00;;;;;;5069775;28;20041;-68
2021/03/24 04:53:31;;;;;;;77.28;39.08;;;7.10;86.10;;;;;;5069243;28;20085;-68
2021/03/24 04:55:59;;;;;;;84.55;39.40;;;7.10;86.30;;;;;;5068854;28;20036;-68
2021/03/24 04:58:40;;;;;;;79.43;38.75;;;7.20;86.20;;;;;;5069878;28;20033;-68
2021/03/24 05:01:24;;;;;;;;;;;7.10;86.20;;;;;;5065153;28;20043;-68
2021/03/24 05:03:55;;;;;;;79.35;38.38;;;7.10;86.40;;;;;;5069876;28;19947;-68
2021/03/24 05:06:30;;;;;;;86.43;41.10;;;7.20;86.40;;;;;;5049493;28;20032;-68
2021/03/24 05:08:58;;;;;;;83.63;40.38;;;7.10;86.90;;;;;;5068788;28;20029;-68
2021/03/24 05:11:32;;;;;;;76.82;37.50;;;7.10;86.50;;;;;;5069164;28;20033;-68
2021/03/24 05:14:25;;;;;;;82.90;39.13;;;7.10;86.40;;;;;;5069648;28;20129;-68
2021/03/24 05:16:58;;;;;;;81.90;40.65;;;7.10;86.60;;;;;;5069013;28;20047;-68
2021/03/24 05:19:28;;;;;;;82.60;39.72;;;7.10;86.60;;;;;;5051184;28;20416;-68
2021/03/24 05:22:21;;;;;;;85.47;40.83;;;7.10;86.40;;;;;;5069599;28;20035;-68
2021/03/24 05:24:48;;;;;;;78.93;38.78;;;7.10;86.60;;;;;;5066920;28;20024;-68
2021/03/24 05:27:40;;;;;;;86.80;40.15;;;7.10;86.70;;;;;;5065402;28;20042;-68
2021/03/24 05:30:16;;;;;;;78.80;38.58;;;7.10;86.60;;;;;;5068375;28;20072;-67
2021/03/24 05:32:46;;;;;;;82.60;40.15;;;7.10;86.50;;;;;;5068235;28;20394;-68
2021/03/24 05:35:26;;;;;;;85.63;41.03;;;7.10;86.80;;;;;;5065576;28;20039;-67
2021/03/24 05:37:53;;;;;;;94.57;43.67;;;7.10;87.00;;;;;;5065035;28;20044;-68
2021/03/24 05:40:44;;;;;;;88.78;41.92;;;7.00;87.00;;;;;;5045663;28;20036;-68
2021/03/24 05:43:38;;;;;;;;;;;7.00;86.90;;;;;;5034585;28;20603;-68
2021/03/24 05:46:37;;;;;;;83.22;40.33;;;7.10;87.50;;;;;;5066986;28;19909;-68
2021/03/24 05:49:45;;;;;;;84.03;38.97;;;7.10;87.00;;;;;;5066981;28;20071;-68
2021/03/24 05:52:28;;;;;;;85.53;38.83;;;7.10;86.90;;;;;;5068307;28;20064;-68
2021/03/24 05:55:15;;;;;;;80.82;38.25;;;7.10;86.90;;;;;;5064148;28;20045;-68
2021/03/24 05:58:15;;;;;;;78.22;36.63;;;7.10;86.80;;;;;;5063367;28;20505;-68
2021/03/24 06:01:19;;;;;;;84.70;39.53;;;7.10;86.80;;;;;;5046153;28;20036;-68
2021/03/24 06:04:08;;;;;;;84.00;38.75;;;7.10;87.10;;;;;;5067672;28;20025;-68
2021/03/24 06:06:55;;;;;;;77.70;36.20;;;7.10;86.80;;;;;;5069048;28;20524;-69
2021/03/24 06:09:41;;;;;;;82.97;38.28;;;7.10;86.90;;;;;;5068853;28;20035;-68
2021/03/24 06:12:42;;;;;;;81.30;39.85;;;7.20;86.70;;;;;;5067441;28;20029;-68
2021/03/24 06:15:33;;;;;;;85.38;39.08;;;7.20;86.70;;;;;;5065838;28;20563;-68
2021/03/24 06:18:26;;;;;;;86.65;40.80;;;7.10;86.90;;;;;;5065534;28;20033;-68
2021/03/24 06:21:04;;;;;;;87.43;38.22;;;7.10;87.10;;;;;;5067066;28;20413;-68
2021/03/24 06:23:54;;;;;;;83.75;38.95;;;7.10;87.10;;;;;;5067807;28;20522;-68
2021/03/24 06:26:34;;;;;;;84.60;40.13;;;7.10;87.20;;;;;;5067629;28;20033;-68
2021/03/24 06:29:29;;;;;;;75.60;37.17;;;7.10;87.20;;;;;;5065383;28;20110;-68
2021/03/24 06:31:58;;;;;;;84.00;39.83;;;7.10;87.20;;;;;;5066092;28;20528;-68
2021/03/24 06:34:42;;;;;;;77.70;37.65;;;7.10;87.10;;;;;;5068799;28;20032;-68
2021/03/24 06:37:17;;;;;;;81.35;38.38;;;7.20;87.10;;;;;;5068138;28;20037;-68
2021/03/24 06:39:55;;;;;;;82.97;38.22;;;7.20;87.00;;;;;;5067167;28;20036;-68
2021/03/24 06:42:29;;;;;;;77.68;38.25;;;7.20;86.70;;;;;;5068683;28;20056;-68
2021/03/24 06:45:01;;;;;;;81.55;37.50;;;7.30;86.70;;;;;;5065628;28;20028;-68
2021/03/24 06:47:49;;;;;;;74.15;36.65;;;7.20;86.80;;;;;;5062237;28;20029;-67
2021/03/24 06:50:55;;;;;;;77.85;37.28;;;7.20;86.70;;;;;;5059108;28;20052;-68
2021/03/24 06:53:57;;;;;;;73.82;34.55;;;7.20;86.70;;;;;;5065640;28;20063;-68
2021/03/24 06:56:52;;;;;;;74.75;35.22;;;7.30;86.70;;;;;;5066692;28;20024;-67
2021/03/24 06:59:39;;;;;;;62.90;32.13;;;7.30;86.60;;;;;;5066908;28;20509;-67
2021/03/24 07:02:33;;;;;;;65.57;32.88;;;7.30;87.20;;;;;;5065457;28;20075;-67
2021/03/24 07:05:34;;;;;;;71.32;35.00;;;7.50;86.20;;;;;;5065542;28;20029;-68
2021/03/24 07:08:41;;;;;;;69.47;34.40;;;7.50;85.50;;;;;;5064282;28;20470;-68
2021/03/24 07:11:24;;;;;;;67.22;32.78;;;7.50;85.50;;;;;;5064178;28;20044;-68
2021/03/24 07:14:01;;;;;;;70.63;35.25;;;7.50;85.60;;;;;;5072139;28;20039;-67
2021/03/24 07:16:35;;;;;;;73.03;34.30;;;7.50;85.30;;;;;;5071342;28;20029;-67
2021/03/24 07:19:28;;;;;;;69.40;34.22;;;7.50;85.40;;;;;;5070076;28;20082;-67
2021/03/24 07:22:15;;;;;;;65.10;32.33;;;7.50;85.10;;;;;;5069112;28;20029;-67
2021/03/24 07:25:19;;;;;;;59.33;31.65;;;7.50;85.20;;;;;;5071610;28;20020;-67
2021/03/24 07:28:00;;;;;;;65.57;32.47;;;7.60;84.20;;;;;;5070422;28;20207;-67
2021/03/24 07:30:46;;;;;;;68.72;34.78;;;7.60;84.10;;;;;;5069758;28;20175;-67
2021/03/24 07:33:35;;;;;;;71.05;34.75;;;7.70;83.90;;;;;;5071263;28;20115;-67
2021/03/24 07:37:02;;;;;;;66.20;34.03;;;7.70;84.10;;;;;;5069702;28;20470;-67
2021/03/24 07:39:37;;;;;;;68.22;34.33;;;7.60;84.20;;;;;;4989061;28;20541;-67
2021/03/24 07:42:41;;;;;;;67.72;35.40;;;7.60;84.70;;;;;;5067205;28;20385;-67
2021/03/24 07:45:13;;;;;;;74.00;35.95;;;7.60;84.90;;;;;;5067221;28;20413;-67
2021/03/24 07:47:49;;;;;;;72.85;34.83;;;7.70;85.00;;;;;;5069479;28;20167;-67
2021/03/24 07:50:38;;;;;;;71.40;35.75;;;7.70;85.30;;;;;;5065945;28;20454;-67
2021/03/24 07:53:32;;;;;;;77.80;37.63;;;7.70;84.90;;;;;;5062153;28;20158;-67
2021/03/24 07:56:21;;;;;;;80.20;39.78;;;7.80;85.10;;;;;;5057099;28;20465;-67
2021/03/24 07:59:06;;;;;;;71.57;36.65;;;7.80;85.10;;;;;;5062795;28;20077;-66
2021/03/24 08:01:43;;;;;;;80.43;39.70;;;7.90;85.30;;;;;;5042212;28;20046;-67
2021/03/24 08:04:35;;;;;;;78.88;40.58;;;8.00;85.00;;;;;;5061953;28;20043;-67
2021/03/24 08:07:07;;;;;;;90.88;43.50;;;8.00;85.20;;;;;;5062333;28;20526;-67
2021/03/24 08:09:41;;;;;;;86.97;43.15;;;8.00;85.10;;;;;;5062375;28;20486;-67
2021/03/24 08:12:37;;;;;;;79.85;40.15;;;8.00;85.20;;;;;;5065856;28;20847;-67
2021/03/24 08:15:40;;;;;;;83.00;39.78;;;8.00;85.40;;;;;;5049189;28;20025;-67
2021/03/24 08:18:19;;;;;;;82.32;41.08;;;8.00;85.40;;;;;;5068504;28;20482;-68
2021/03/24 08:21:24;;;;;;;87.05;42.10;;;8.10;85.20;;;;;;5067065;28;20036;-66
2021/03/24 08:24:09;;;;;;;82.63;41.35;;;8.20;84.80;;;;;;5066813;28;20382;-67
2021/03/24 08:26:44;;;;;;;85.30;42.47;;;8.20;84.70;;;;;;5070239;28;20071;-67
2021/03/24 08:29:21;;;;;;;90.85;43.70;;;8.30;84.40;;;;;;5072720;28;20694;-68
2021/03/24 08:32:10;;;;;;;84.18;42.30;;;8.30;84.20;;;;;;5066239;28;20083;-68
2021/03/24 08:35:11;;;;;;;89.35;42.78;;;8.40;84.50;;;;;;5068408;28;20103;-67
2021/03/24 08:38:03;;;;;;;80.50;40.70;;;8.40;84.00;;;;;;5067228;28;20028;-68
2021/03/24 08:40:41;;;;;;;86.18;42.17;;;8.40;84.30;;;;;;5069477;28;20029;-67
2021/03/24 08:43:13;;;;;;;84.28;41.72;;;8.40;84.60;;;;;;5068056;28;20032;-67
2021/03/24 08:45:51;;;;;;;79.55;40.15;;;8.40;84.30;;;;;;5052036;28;20132;-67
2021/03/24 08:48:32;;;;;;;82.65;40.30;;;8.50;84.40;;;;;;5069992;28;20028;-67
2021/03/24 08:51:11;;;;;;;82.95;40.85;;;8.50;84.60;;;;;;5068070;28;20127;-66
2021/03/24 08:54:03;;;;;;;82.85;40.78;;;8.50;84.90;;;;;;5048916;28;20036;-67
2021/03/24 08:56:50;;;;;;;77.70;41.72;;;8.60;84.30;;;;;;5068637;28;20358;-67
2021/03/24 08:59:35;;;;;;;89.78;44.22;;;8.70;84.20;;;;;;5070151;28;20632;-67
2021/03/24 09:02:23;;;;;;;82.32;42.40;;;8.70;84.30;;;;;;5051188;28;20520;-68
2021/03/24 09:05:08;;;;;;;82.75;41.40;;;8.80;83.90;;;;;;5064284;28;20048;-67
2021/03/24 09:07:41;;;;;;;85.07;42.38;;;8.80;83.70;;;;;;5064903;28;20599;-67
2021/03/24 09:10:24;;;;;;;84.90;42.13;;;8.80;84.20;;;;;;5066897;28;20413;-67
2021/03/24 09:13:15;;;;;;;83.75;43.33;;;8.80;83.60;;;;;;5066915;28;20379;-67
2021/03/24 09:15:46;;;;;;;83.97;41.20;;;8.90;83.60;;;;;;5048858;28;20032;-67
2021/03/24 09:18:20;;;;;;;82.03;41.58;;;8.90;83.50;;;;;;5069309;28;20044;-67
2021/03/24 09:21:07;;;;;;;79.47;40.25;;;9.00;83.40;;;;;;5068580;28;20033;-67
2021/03/24 09:23:50;;;;;;;85.60;42.88;;;9.00;83.60;;;;;;5067194;28;20107;-67
2021/03/24 09:26:43;;;;;;;85.68;43.40;;;9.00;83.60;;;;;;5068409;28;20450;-67
2021/03/24 09:29:34;;;;;;;74.47;39.92;;;9.10;83.40;;;;;;5067159;28;20029;-67
2021/03/24 09:32:44;;;;;;;;;;;;;;;;;;;;;
2021/03/24 09:38:38;;;;;;;80.07;41.72;;;9.60;82.10;;;;;;5080131;23;20044;-74
2021/03/24 09:41:38;;;;;;;73.32;39.47;;;9.70;82.50;;;;;;5075872;28;20735;-73
2021/03/24 09:44:14;;;;;;;82.10;42.28;;;9.80;80.60;;;;;;5068466;28;20036;-72
2021/03/24 09:46:46;;;;;;;74.95;40.88;;;9.90;79.70;;;;;;5076108;28;20032;-74
2021/03/24 09:49:19;;;;;;;75.18;40.70;;;9.90;79.80;;;;;;5077167;28;20494;-74
2021/03/24 09:52:08;;;;;;;73.35;39.50;;;10.00;79.40;;;;;;5056761;28;20437;-74
2021/03/24 09:54:34;;;;;;;75.97;38.90;;;10.10;78.10;;;;;;5074886;28;20392;-75
2021/03/24 09:57:08;;;;;;;69.75;38.95;;;10.10;78.10;;;;;;5056576;28;20101;-73
2021/03/24 10:00:09;;;;;;;72.95;39.45;;;10.00;79.20;;;;;;5058244;28;20105;-74
2021/03/24 10:02:48;;;;;;;67.28;35.80;;;10.10;79.00;;;;;;5074587;28;20024;-75
2021/03/24 10:05:21;;;;;;;66.30;36.83;;;10.30;77.70;;;;;;5056767;28;20020;-74
2021/03/24 10:07:59;;;;;;;74.22;39.88;;;10.40;76.40;;;;;;5076322;28;20035;-74
2021/03/24 10:10:30;;;;;;;64.35;35.92;;;10.50;76.50;;;;;;5077382;28;20077;-74
2021/03/24 10:13:18;;;;;;;71.78;37.78;;;10.50;77.20;;;;;;5072824;28;20032;-72
2021/03/24 10:16:09;;;;;;;68.05;38.22;;;10.60;76.10;;;;;;5060379;28;20027;-72
2021/03/24 10:18:50;;;;;;;67.63;37.30;;;10.70;76.10;;;;;;5074631;28;20048;-73
2021/03/24 10:21:25;;;;;;;71.78;38.75;;;10.70;76.40;;;;;;5074809;28;20162;-73
2021/03/24 10:23:59;;;;;;;68.18;37.55;;;10.90;75.80;;;;;;5072490;28;20024;-73
2021/03/24 10:26:53;;;;;;;69.72;39.45;;;10.90;74.10;;;;;;5058228;28;20025;-73
2021/03/24 10:29:23;;;;;;;67.97;38.33;;;10.80;74.90;;;;;;5063854;28;20046;-73
2021/03/24 10:31:56;;;;;;;65.32;38.03;;;10.90;75.00;;;;;;5072408;28;20031;-73
2021/03/24 10:34:33;;;;;;;68.72;39.83;;;11.00;74.80;;;;;;5058621;28;20028;-73
2021/03/24 10:37:02;;;;;;;72.25;39.30;;;11.00;75.00;;;;;;5054930;28;20047;-74
2021/03/24 10:39:37;;;;;;;69.68;37.15;;;10.90;75.10;;;;;;5073553;28;20055;-73
2021/03/24 10:42:21;;;;;;;66.82;38.85;;;11.00;75.50;;;;;;5076289;28;20027;-75
2021/03/24 10:45:04;;;;;;;68.75;38.80;;;10.90;74.50;;;;;;5075086;28;20028;-74
2021/03/24 10:47:38;;;;;;;68.47;39.83;;;10.90;74.10;;;;;;5078969;28;20059;-73
2021/03/24 10:50:33;;;;;;;71.82;41.08;;;11.00;74.10;;;;;;5080622;28;20083;-74
2021/03/24 10:52:59;;;;;;;76.38;40.95;;;10.80;74.80;;;;;;5080363;28;20487;-75
2021/03/24 10:55:27;;;;;;;68.80;39.30;;;10.70;75.90;;;;;;5082353;28;20020;-75
2021/03/24 10:58:14;;;;;;;66.60;38.97;;;10.70;76.40;;;;;;5080604;28;20103;-74
2021/03/24 11:00:45;;;;;;;74.75;42.10;;;10.70;76.40;;;;;;5081974;28;20033;-73
2021/03/24 11:03:22;;;;;;;72.53;40.55;;;10.90;75.40;;;;;;5077669;28;20055;-74
2021/03/24 11:06:01;;;;;;;78.68;41.70;;;11.00;75.10;;;;;;5078695;28;20040;-72
2021/03/24 11:09:10;;;;;;;71.88;39.53;;;11.00;73.70;;;;;;5057978;28;20052;-72
2021/03/24 11:11:51;;;;;;;70.70;38.85;;;11.00;74.30;;;;;;4984115;28;20093;-74
2021/03/24 11:14:24;;;;;;;71.75;39.67;;;11.00;74.10;;;;;;4987825;28;20030;-73
2021/03/24 11:17:09;;;;;;;62.70;36.35;;;11.20;74.20;;;;;;4969623;28;20050;-73
2021/03/24 11:19:43;;;;;;;62.15;36.13;;;11.60;73.60;;;;;;4990617;28;20038;-73
2021/03/24 11:22:14;;;;;;;49.63;30.58;;;11.80;70.90;;;;;;4983099;28;20492;-74
2021/03/24 11:24:40;;;;;;;;;;;12.30;70.70;;;;;;4976680;28;20027;-76
2021/03/24 11:27:10;;;;;;;51.85;30.02;;;13.40;66.30;;;;;;4968260;28;19965;-75
2021/03/24 11:29:45;;;;;;;51.90;30.83;;;13.80;61.60;;;;;;4980405;28;20038;-74
2021/03/24 11:32:16;;;;;;;42.50;27.45;;;13.90;63.60;;;;;;4985361;28;20037;-75
2021/03/24 11:34:50;;;;;;;49.83;30.98;;;14.40;63.30;;;;;;4965084;28;20046;-75
2021/03/24 11:37:47;;;;;;;49.58;30.40;;;14.60;61.20;;;;;;4987968;28;20121;-74
2021/03/24 11:40:34;;;;;;;47.00;28.77;;;14.70;59.80;;;;;;4985293;28;20396;-71
2021/03/24 11:43:05;;;;;;;47.80;30.80;;;14.90;57.60;;;;;;5059466;28;20045;-75
2021/03/24 11:45:33;;;;;;;48.35;29.70;;;15.10;57.80;;;;;;5080797;28;20115;-75
2021/03/24 11:48:09;;;;;;;50.95;32.78;;;15.20;60.30;;;;;;5082462;28;20039;-75
2021/03/24 11:50:46;;;;;;;46.47;30.23;;;15.40;57.80;;;;;;5080876;28;20088;-76
2021/03/24 11:53:50;;;;;;;52.22;31.65;;;15.40;59.20;;;;;;5065848;28;20417;-75
2021/03/24 11:56:38;;;;;;;58.72;33.60;;;15.30;58.30;;;;;;5079633;28;20016;-76
2021/03/24 11:59:28;;;;;;;53.38;32.65;;;15.10;56.00;;;;;;5075722;28;20086;-76
2021/03/24 12:02:00;;;;;;;49.58;32.13;;;14.70;56.60;;;;;;5056889;28;20110;-75
2021/03/24 12:04:50;;;;;;;57.00;35.22;;;14.50;60.30;;;;;;5081076;28;20108;-74
2021/03/24 12:08:06;;;;;;;53.00;32.65;;;14.40;60.30;;;;;;5079084;28;20048;-74
2021/03/24 12:10:37;;;;;;;53.10;33.78;;;14.10;60.90;;;;;;5041871;28;20036;-75
2021/03/24 12:13:19;;;;;;;55.50;33.55;;;14.00;61.60;;;;;;5058302;28;20017;-75
2021/03/24 12:15:58;;;;;;;55.08;34.22;;;14.20;60.90;;;;;;5077041;28;20028;-70
2021/03/24 12:18:23;;;;;;;54.03;33.17;;;14.30;62.00;;;;;;5077175;28;20024;-72
2021/03/24 12:20:59;;;;;;;54.08;33.05;;;14.60;61.20;;;;;;5077028;28;20514;-76
2021/03/24 12:23:28;;;;;;;55.78;35.05;;;14.70;59.40;;;;;;5078340;28;20035;-77
2021/03/24 12:25:57;;;;;;;58.08;34.05;;;14.50;61.10;;;;;;5074352;28;20044;-74
2021/03/24 12:28:39;;;;;;;56.30;33.90;;;14.50;61.30;;;;;;5075809;28;20622;-73
2021/03/24 12:31:09;;;;;;;57.90;34.90;;;14.80;58.70;;;;;;5075504;28;20036;-74
2021/03/24 12:33:39;;;;;;;58.95;35.10;;;14.70;59.70;;;;;;5058306;28;20031;-75
2021/03/24 12:36:17;;;;;;;56.28;35.88;;;14.60;59.30;;;;;;5057232;28;20409;-74
2021/03/24 12:38:45;;;;;;;59.13;35.67;;;14.70;61.40;;;;;;5074891;28;20154;-74
2021/03/24 12:41:12;;;;;;;54.03;34.88;;;14.60;60.00;;;;;;5077002;28;20040;-74
2021/03/24 12:43:42;;;;;;;61.75;35.83;;;14.30;60.60;;;;;;5077797;28;20095;-74
2021/03/24 12:46:12;;;;;;;59.15;35.95;;;14.10;61.90;;;;;;5076505;28;20478;-73
2021/03/24 12:48:50;;;;;;;53.38;34.58;;;14.10;62.00;;;;;;5075794;28;20036;-74
2021/03/24 12:51:36;;;;;;;56.53;35.70;;;14.00;62.30;;;;;;5077741;28;20039;-75
2021/03/24 12:54:03;;;;;;;57.95;35.15;;;14.10;61.90;;;;;;5078790;28;20071;-76
2021/03/24 12:57:02;;;;;;;58.63;35.63;;;14.00;60.40;;;;;;5079321;28;20086;-74
2021/03/24 12:59:36;;;;;;;60.10;36.30;;;14.00;61.00;;;;;;5073509;28;20032;-74
2021/03/24 13:02:30;;;;;;;53.88;33.97;;;14.10;60.40;;;;;;5076190;28;20034;-75
2021/03/24 13:05:11;;;;;;;59.97;36.50;;;14.20;60.50;;;;;;5061357;28;20066;-75
2021/03/24 13:07:46;;;;;;;58.78;36.70;;;14.00;61.20;;;;;;5075927;28;20404;-79
2021/03/24 13:10:23;;;;;;;58.67;36.90;;;14.00;61.20;;;;;;5078905;28;20044;-73
2021/03/24 13:13:11;;;;;;;63.72;37.60;;;13.90;61.50;;;;;;5057877;28;20512;-73
2021/03/24 13:16:01;;;;;;;67.45;36.55;;;13.90;61.10;;;;;;5079592;28;20029;-75
2021/03/24 13:18:44;;;;;;;59.53;35.92;;;13.70;61.80;;;;;;5078485;28;20094;-75
2021/03/24 13:21:37;;;;;;;65.45;39.60;;;13.70;62.00;;;;;;5075232;28;20039;-75
2021/03/24 13:24:43;;;;;;;63.83;36.83;;;13.80;62.30;;;;;;5076139;28;20090;-75
2021/03/24 13:27:35;;;;;;;60.22;37.42;;;13.70;62.30;;;;;;5058864;28;20031;-74
2021/03/24 13:30:25;;;;;;;67.20;39.47;;;13.70;62.10;;;;;;5044482;28;20409;-74
2021/03/24 13:33:15;;;;;;;56.85;35.45;;;13.70;62.80;;;;;;5059847;28;20043;-75
2021/03/24 13:36:03;;;;;;;63.45;36.17;;;13.90;61.90;;;;;;5079717;28;20020;-74